Rockland, MA (02370)

8:38 PM EDT on October 20, 2014 (GMT -0400)
Rockland Fire HQ | Change Station
CLOSE
Current Station
Personal Weather Station
Location: Rockland, MA
Elevation: 161 ft
Nearby Weather Stations

Elev 161 ft 42.13 °N, 70.92 °W | Updated 1 minute ago

Partly Cloudy
Partly Cloudy
48.9 °F
Feels Like 49 °F
N
0.0
Wind Variable Wind from WNW
Gusts 0.0 mph

Today
High -- | Low -- °F
--% Chance of Precip.
Yesterday
High -- | Low -- °F
Precip. -- in
7:02 AM 5:54 PM
Waning Crescent, 8% visible
Pressure 30.00 in
Visibility 10.0 miles
Clouds Clear
Windchill 49 °F
Dew Point 40 °F
Humidity 72%
Rainfall 0.00 in
Snow Depth Not available.
UV 0 out of 12
Pollen 1.60 out of 12
Air Quality Not available.
Flu Activity No Activity
METAR KOWD 202353Z 18005KT 10SM CLR 08/02 A3000 RMK AO2 SLP159 T00830017 10144 20083 53008

More Conditions Fewer Conditions

Pressure 30.00 in
Visibility 10.0 miles
Clouds Clear
Windchill 49 °F
Dew Point 40 °F
Humidity 72%
Rainfall 0.00 in
Snow Depth Not available.
UV 0 out of 12
Pollen 1.60 out of 12
Air Quality Not available.
Flu Activity No Activity
METAR KOWD 202353Z 18005KT 10SM CLR 08/02 A3000 RMK AO2 SLP159 T00830017 10144 20083 53008

More Conditions Fewer Conditions

10-Day Weather Forecast

Almanac

Astronomy

Oct. 20, 2014 Rise Set
Actual Time 7:02 AM EDT 5:54 PM EDT
Civil Twilight 6:33 AM EDT 6:22 PM EDT
Nautical Twilight 6:01 AM EDT 6:55 PM EDT
Astronomical Twilight 5:28 AM EDT 7:27 PM EDT
Moon 3:44 AM EDT (10/20) 4:18 PM EDT (10/20)
Length of Visible Light 11h 48m
Length of Day
10h 52m
Tomorrow will be 2m 40s shorter.
Waning Crescent, 8% of the Moon is Illuminated
Today
Waning Crescent
Oct 23
New
Oct 30
First Quarter
Nov 6
Full
Nov 14
Last Quarter

Today's Extremes

State Highs State Lows

Community

WunderPhotos

Upload Photos

1,763,566 photos uploaded!

Nearby

Air Quality

  Air Quality AQ Index Pollutant
Yesterday Good
PM2.5
Yesterday Good
OZONE
Monday Good
PM2.5
Monday Good
OZONE
Tuesday Good
PM2.5
Wednesday Good
PM2.5
Thursday Good
PM2.5

Snow Depth

Station Depth Elevation
No new snow has been reported.

Earthquake Activity

City Distance Mag. Time & Date
No recent earthquake activity has been reported nearby.
Minimum magnitude displayed is 2.5.

Coastal Water Temperatures

Place Temperature
Boston, MA 57.0 °F
Providence, RI 61.0 °F
Fall River, MA 64.0 °F
Conimicut Light, RI 61.0 °F

Nearby Weather Stations